createdAt,value
2017-07-28T00:01:07.926Z,10.33
2017-07-28T00:03:35.058Z,8.93
2017-07-28T00:06:01.696Z,10.70
2017-07-28T00:08:28.922Z,9.43
2017-07-28T00:10:55.585Z,10.23
2017-07-28T00:13:22.234Z,10.10
2017-07-28T00:15:48.866Z,10.40
2017-07-28T00:18:15.498Z,11.07
2017-07-28T00:20:42.480Z,12.80
2017-07-28T00:23:09.086Z,11.57
2017-07-28T00:25:35.749Z,11.70
2017-07-28T00:28:02.384Z,11.97
2017-07-28T00:30:29.028Z,10.73
2017-07-28T00:32:55.662Z,12.07
2017-07-28T00:35:22.312Z,10.83
2017-07-28T00:37:48.987Z,10.27
2017-07-28T00:40:15.620Z,8.30
2017-07-28T00:42:42.265Z,8.90
2017-07-28T00:45:08.895Z,7.97
2017-07-28T00:47:35.507Z,7.50
2017-07-28T00:50:02.158Z,8.10
2017-07-28T00:52:28.784Z,7.90
2017-07-28T00:54:55.412Z,7.37
2017-07-28T00:57:22.039Z,8.30
2017-07-28T00:59:48.667Z,7.00
2017-07-28T01:02:15.308Z,8.83
2017-07-28T01:04:41.943Z,7.30
2017-07-28T01:07:08.567Z,6.90
2017-07-28T01:09:35.221Z,8.10
2017-07-28T01:12:01.861Z,8.03
2017-07-28T01:14:28.479Z,7.67
2017-07-28T01:16:55.111Z,8.50
2017-07-28T01:19:21.732Z,7.57
2017-07-28T01:21:48.381Z,7.90
2017-07-28T01:24:15.011Z,9.30
2017-07-28T01:26:41.682Z,7.33
2017-07-28T01:29:08.337Z,7.20
2017-07-28T01:31:34.997Z,8.47
2017-07-28T01:34:01.619Z,7.20
2017-07-28T01:36:28.239Z,7.47
2017-07-28T01:38:54.875Z,6.63
2017-07-28T01:41:21.503Z,7.40
2017-07-28T01:43:48.414Z,6.50
2017-07-28T01:46:15.067Z,6.50
2017-07-28T01:48:41.696Z,5.97
2017-07-28T01:51:08.318Z,5.90
2017-07-28T01:53:34.966Z,5.93
2017-07-28T01:56:01.592Z,5.47
2017-07-28T01:58:28.210Z,5.97
2017-07-28T02:00:54.858Z,6.67
2017-07-28T02:03:21.487Z,6.30
2017-07-28T02:05:48.123Z,5.03
2017-07-28T02:08:14.780Z,5.10
2017-07-28T02:10:41.428Z,5.40
2017-07-28T02:13:08.056Z,4.77
2017-07-28T02:15:34.696Z,4.87
2017-07-28T02:18:01.697Z,5.10
2017-07-28T02:20:28.351Z,5.40
2017-07-28T02:22:54.999Z,5.40
2017-07-28T02:25:21.648Z,5.07
2017-07-28T02:27:48.280Z,4.67
2017-07-28T02:30:14.935Z,6.70
2017-07-28T02:32:41.561Z,4.17
2017-07-28T02:35:08.179Z,4.87
2017-07-28T02:37:34.841Z,4.17
2017-07-28T02:40:01.447Z,6.27
2017-07-28T02:42:28.088Z,4.60
2017-07-28T02:44:54.729Z,3.90
2017-07-28T02:47:21.358Z,5.43
2017-07-28T02:49:48.009Z,3.90
2017-07-28T02:52:14.662Z,2.93
2017-07-28T02:54:41.271Z,4.23
2017-07-28T02:57:07.911Z,4.63
2017-07-28T02:59:34.535Z,4.17
2017-07-28T03:02:01.195Z,3.87
2017-07-28T03:04:27.826Z,4.17
2017-07-28T03:06:54.499Z,3.27
2017-07-28T03:09:21.123Z,4.10
2017-07-28T03:11:47.741Z,5.10
2017-07-28T03:14:14.372Z,3.93
2017-07-28T03:16:41.011Z,4.00
2017-07-28T03:19:07.631Z,3.47
2017-07-28T03:21:34.261Z,4.20
2017-07-28T03:24:00.899Z,4.80
2017-07-28T03:26:27.524Z,3.93
2017-07-28T03:28:54.158Z,3.70
2017-07-28T03:31:20.769Z,5.27
2017-07-28T03:33:47.424Z,5.70
2017-07-28T03:36:14.033Z,4.20
2017-07-28T03:38:40.879Z,3.80
2017-07-28T03:41:07.540Z,4.80
2017-07-28T03:43:34.195Z,3.60
2017-07-28T03:46:00.828Z,4.50
2017-07-28T03:48:27.446Z,4.50
2017-07-28T03:50:54.084Z,3.60
2017-07-28T03:53:20.716Z,4.30
2017-07-28T03:55:47.370Z,5.00
2017-07-28T03:58:14.007Z,4.80
2017-07-28T04:00:40.634Z,4.30
2017-07-28T04:03:07.295Z,4.20
2017-07-28T04:05:33.916Z,3.97
2017-07-28T04:08:00.552Z,4.33
2017-07-28T04:10:27.188Z,4.13
2017-07-28T04:12:54.738Z,4.33
2017-07-28T04:15:21.341Z,3.80
2017-07-28T04:17:47.961Z,4.50
2017-07-28T04:20:14.598Z,5.40
2017-07-28T04:22:41.232Z,4.13
2017-07-28T04:25:07.896Z,4.13
2017-07-28T04:27:34.505Z,4.40
2017-07-28T04:30:01.132Z,5.57
2017-07-28T04:32:27.779Z,4.50
2017-07-28T04:34:54.421Z,3.47
2017-07-28T04:37:21.052Z,4.60
2017-07-28T04:39:47.680Z,4.87
2017-07-28T04:42:14.331Z,5.70
2017-07-28T04:44:40.964Z,5.00
2017-07-28T04:47:07.590Z,5.20
2017-07-28T04:49:34.248Z,4.80
2017-07-28T04:52:00.888Z,4.73
2017-07-28T04:54:27.516Z,5.00
2017-07-28T04:56:54.171Z,3.97
2017-07-28T04:59:20.787Z,5.47
2017-07-28T05:01:47.433Z,4.33
2017-07-28T05:04:14.049Z,4.57
2017-07-28T05:06:40.689Z,3.93
2017-07-28T05:09:07.313Z,4.93
2017-07-28T05:11:33.971Z,4.90
2017-07-28T05:14:00.602Z,6.33
2017-07-28T05:16:27.238Z,4.27
2017-07-28T05:18:53.858Z,4.67
2017-07-28T05:21:20.491Z,5.50
2017-07-28T05:23:47.128Z,5.20
2017-07-28T05:26:13.756Z,4.20
2017-07-28T05:28:42.446Z,4.60
2017-07-28T05:31:09.074Z,5.07
2017-07-28T05:33:35.698Z,5.20
2017-07-28T05:36:02.323Z,4.63
2017-07-28T05:38:28.964Z,4.47
2017-07-28T05:40:55.586Z,5.20
2017-07-28T05:43:22.230Z,6.93
2017-07-28T05:45:48.878Z,3.83
2017-07-28T05:48:15.499Z,4.57
2017-07-28T05:50:42.139Z,3.90
2017-07-28T05:53:08.781Z,4.47
2017-07-28T05:55:35.411Z,4.47
2017-07-28T05:58:02.044Z,4.70
2017-07-28T06:00:28.900Z,3.77
2017-07-28T06:02:55.554Z,4.80
2017-07-28T06:05:23.085Z,4.10
2017-07-28T06:07:52.083Z,5.03
2017-07-28T06:10:19.343Z,4.60
2017-07-28T06:12:45.975Z,4.53
2017-07-28T06:15:12.628Z,5.43
2017-07-28T06:17:40.803Z,4.93
2017-07-28T06:20:07.444Z,5.07
2017-07-28T06:22:34.090Z,4.40
2017-07-28T06:25:00.730Z,5.03
2017-07-28T06:27:28.115Z,4.87
2017-07-28T06:29:54.736Z,4.17
2017-07-28T06:32:22.299Z,4.20
2017-07-28T06:34:51.589Z,3.90
2017-07-28T06:37:18.226Z,4.17
2017-07-28T06:39:47.056Z,3.50
2017-07-28T06:42:15.933Z,4.30
2017-07-28T06:44:42.604Z,3.00
2017-07-28T06:47:09.568Z,3.93
2017-07-28T06:49:36.864Z,4.43
2017-07-28T06:52:03.521Z,4.40
2017-07-28T06:54:31.341Z,4.17
2017-07-28T06:56:57.988Z,4.47
2017-07-28T06:59:24.602Z,4.63
2017-07-28T07:01:51.740Z,4.47
2017-07-28T07:04:18.351Z,3.90
2017-07-28T07:06:44.972Z,3.47
2017-07-28T07:09:11.978Z,5.13
2017-07-28T07:11:39.048Z,4.40
2017-07-28T07:14:05.678Z,5.10
2017-07-28T07:16:32.306Z,5.60
2017-07-28T07:19:00.160Z,5.03
2017-07-28T07:21:27.332Z,4.10
2017-07-28T07:23:53.941Z,3.50
2017-07-28T07:26:20.575Z,3.40
2017-07-28T07:28:47.201Z,3.40
2017-07-28T07:31:13.849Z,3.87
2017-07-28T07:33:40.481Z,4.33
2017-07-28T07:36:07.131Z,3.73
2017-07-28T07:38:34.522Z,4.30
2017-07-28T07:41:01.122Z,3.67
2017-07-28T07:43:29.551Z,2.67
2017-07-28T07:45:56.183Z,3.73
2017-07-28T07:48:22.815Z,2.73
2017-07-28T07:50:49.469Z,3.50
2017-07-28T07:53:16.128Z,3.03
2017-07-28T07:55:42.732Z,4.07
2017-07-28T07:58:11.232Z,3.63
2017-07-28T08:00:40.593Z,4.33
2017-07-28T08:03:07.252Z,3.70
2017-07-28T08:05:33.923Z,4.10
2017-07-28T08:08:00.531Z,3.07
2017-07-28T08:10:27.175Z,4.53
2017-07-28T08:12:54.778Z,4.43
2017-07-28T08:15:21.418Z,2.83
2017-07-28T08:17:50.073Z,4.30
2017-07-28T08:20:17.124Z,3.90
2017-07-28T08:22:45.526Z,2.80
2017-07-28T08:25:12.160Z,2.63
2017-07-28T08:27:39.995Z,3.93
2017-07-28T08:30:07.214Z,3.70
2017-07-28T08:32:33.922Z,3.87
2017-07-28T08:35:00.573Z,3.00
2017-07-28T08:37:29.264Z,3.10
2017-07-28T08:39:55.898Z,3.90
2017-07-28T08:42:23.376Z,2.83
2017-07-28T08:44:51.600Z,2.70
2017-07-28T08:47:21.467Z,3.03
2017-07-28T08:49:50.478Z,2.67
2017-07-28T08:52:19.391Z,3.50
2017-07-28T08:54:47.598Z,2.77
2017-07-28T08:57:15.745Z,2.43
2017-07-28T08:59:44.813Z,3.33
2017-07-28T09:02:14.975Z,3.17
2017-07-28T09:04:43.667Z,2.80
2017-07-28T09:07:11.942Z,2.20
2017-07-28T09:09:42.180Z,3.80
2017-07-28T09:12:11.565Z,3.07
2017-07-28T09:14:42.580Z,3.63
2017-07-28T09:17:10.698Z,3.73
2017-07-28T09:19:40.054Z,3.00
2017-07-28T09:22:08.300Z,3.23
2017-07-28T09:24:36.673Z,3.90
2017-07-28T09:27:03.311Z,2.80
2017-07-28T09:29:32.815Z,2.93
2017-07-28T09:31:59.451Z,2.40
2017-07-28T09:34:26.060Z,2.73
2017-07-28T09:36:52.714Z,2.20
2017-07-28T09:39:19.363Z,2.47
2017-07-28T09:41:48.710Z,2.40
2017-07-28T09:44:15.314Z,2.60
2017-07-28T09:46:43.741Z,2.80
2017-07-28T09:49:13.682Z,2.27
2017-07-28T09:51:42.259Z,2.10
2017-07-28T09:54:08.959Z,1.70
2017-07-28T09:56:39.093Z,1.90
2017-07-28T09:59:05.719Z,1.93
2017-07-28T10:01:34.897Z,2.50
2017-07-28T10:04:03.424Z,2.20
2017-07-28T10:06:33.452Z,1.63
2017-07-28T10:09:01.536Z,2.70
2017-07-28T10:11:30.807Z,2.37
2017-07-28T10:13:58.147Z,1.87
2017-07-28T10:16:25.890Z,3.10
2017-07-28T10:18:52.494Z,1.67
2017-07-28T10:21:19.143Z,2.93
2017-07-28T10:23:47.789Z,2.17
2017-07-28T10:26:14.403Z,1.77
2017-07-28T10:28:43.154Z,1.90
2017-07-28T10:31:09.789Z,2.30
2017-07-28T10:33:36.418Z,2.10
2017-07-28T10:36:06.405Z,2.23
2017-07-28T10:38:33.032Z,2.13
2017-07-28T10:40:59.700Z,2.30
2017-07-28T10:43:26.315Z,3.30
2017-07-28T10:45:52.930Z,2.90
2017-07-28T10:48:19.549Z,1.80
2017-07-28T10:50:46.209Z,2.57
2017-07-28T10:53:13.062Z,2.67
2017-07-28T10:55:39.735Z,3.17
2017-07-28T10:58:06.339Z,3.00
2017-07-28T11:00:33.298Z,2.60
2017-07-28T11:02:59.906Z,2.17
2017-07-28T11:05:26.567Z,2.70
2017-07-28T11:07:53.207Z,2.70
2017-07-28T11:10:21.234Z,3.27
2017-07-28T11:12:47.862Z,3.40
2017-07-28T11:15:15.439Z,2.20
2017-07-28T11:17:42.043Z,2.43
2017-07-28T11:20:08.722Z,1.93
2017-07-28T11:22:35.939Z,1.73
2017-07-28T11:25:04.092Z,2.03
2017-07-28T11:27:30.716Z,2.20
2017-07-28T11:29:57.339Z,1.80
2017-07-28T11:32:24.204Z,2.17
2017-07-28T11:34:52.517Z,1.60
2017-07-28T11:37:19.134Z,2.27
2017-07-28T11:39:46.099Z,2.63
2017-07-28T11:42:14.649Z,2.47
2017-07-28T11:44:41.611Z,2.20
2017-07-28T11:47:09.495Z,2.40
2017-07-28T11:49:37.468Z,2.20
2017-07-28T11:52:04.867Z,2.00
2017-07-28T11:54:34.114Z,2.80
2017-07-28T11:57:03.183Z,2.23
2017-07-28T11:59:30.494Z,1.83
2017-07-28T12:01:57.125Z,2.13
2017-07-28T12:04:23.742Z,2.10
2017-07-28T12:06:50.407Z,2.03
2017-07-28T12:09:17.456Z,2.00
2017-07-28T12:11:44.674Z,1.87
2017-07-28T12:14:11.323Z,1.60
2017-07-28T12:16:37.952Z,2.47
2017-07-28T12:19:04.585Z,2.70
2017-07-28T12:21:31.212Z,1.80
2017-07-28T12:23:57.835Z,2.27
2017-07-28T12:26:24.480Z,1.87
2017-07-28T12:28:51.143Z,2.23
2017-07-28T12:31:17.764Z,3.40
2017-07-28T12:33:44.409Z,2.37
2017-07-28T12:36:11.077Z,1.87
2017-07-28T12:38:37.699Z,2.20
2017-07-28T12:41:04.335Z,2.43
2017-07-28T12:43:30.978Z,3.40
2017-07-28T12:45:57.598Z,1.77
2017-07-28T12:48:24.238Z,2.10
2017-07-28T12:50:50.859Z,2.13
2017-07-28T12:53:17.495Z,3.27
2017-07-28T12:55:44.140Z,2.70
2017-07-28T12:58:10.799Z,3.13
2017-07-28T13:00:40.738Z,3.60
2017-07-28T13:03:07.361Z,2.33
2017-07-28T13:05:36.748Z,2.47
2017-07-28T13:08:03.416Z,1.90
2017-07-28T13:10:30.070Z,2.50
2017-07-28T13:12:56.696Z,2.30
2017-07-28T13:15:23.353Z,3.47
2017-07-28T13:17:50.002Z,2.50
2017-07-28T13:20:16.636Z,2.20
2017-07-28T13:22:43.274Z,2.20
2017-07-28T13:25:09.892Z,2.13
2017-07-28T13:27:36.539Z,2.27
2017-07-28T13:30:03.184Z,1.40
2017-07-28T13:32:30.198Z,2.57
2017-07-28T13:34:56.841Z,1.60
2017-07-28T13:37:23.460Z,2.10
2017-07-28T13:39:53.739Z,2.60
2017-07-28T13:42:20.367Z,2.27
2017-07-28T13:44:47.100Z,3.00
2017-07-28T13:47:13.756Z,3.70
2017-07-28T13:49:42.699Z,3.00
2017-07-28T13:52:09.326Z,2.27
2017-07-28T13:54:37.383Z,1.60
2017-07-28T13:57:04.028Z,1.77
2017-07-28T13:59:30.636Z,2.43
2017-07-28T14:01:57.282Z,2.50
2017-07-28T14:04:26.429Z,2.30
2017-07-28T14:06:55.005Z,2.00
2017-07-28T14:09:22.903Z,1.77
2017-07-28T14:11:51.834Z,1.80
2017-07-28T14:14:21.340Z,2.70
2017-07-28T14:16:49.894Z,2.30
2017-07-28T14:19:18.076Z,1.77
2017-07-28T14:21:44.737Z,2.10
2017-07-28T14:24:11.372Z,2.47
2017-07-28T14:26:38.787Z,3.27
2017-07-28T14:29:05.411Z,1.80
2017-07-28T14:31:32.046Z,2.10
2017-07-28T14:33:58.680Z,1.80
2017-07-28T14:36:25.807Z,1.90
2017-07-28T14:38:52.431Z,1.90
2017-07-28T14:41:19.089Z,2.40
2017-07-28T14:43:46.561Z,2.43
2017-07-28T14:46:13.186Z,3.07
2017-07-28T14:48:39.809Z,2.20
2017-07-28T14:51:07.131Z,3.57
2017-07-28T14:53:34.291Z,1.73
2017-07-28T14:56:02.463Z,1.90
2017-07-28T14:58:29.802Z,1.83
2017-07-28T15:00:57.000Z,1.93
2017-07-28T15:03:25.716Z,1.90
2017-07-28T15:05:53.460Z,1.80
2017-07-28T15:08:20.679Z,2.40
2017-07-28T15:10:47.299Z,2.47
2017-07-28T15:13:13.941Z,1.67
2017-07-28T15:15:40.571Z,2.20
2017-07-28T15:18:08.603Z,2.23
2017-07-28T15:20:37.398Z,2.07
2017-07-28T15:23:04.032Z,2.47
2017-07-28T15:25:32.368Z,2.07
2017-07-28T15:27:59.004Z,1.70
2017-07-28T15:30:25.624Z,3.33
2017-07-28T15:32:53.643Z,2.33
2017-07-28T15:35:21.931Z,1.80
2017-07-28T15:37:52.276Z,1.80
2017-07-28T15:40:21.185Z,1.97
2017-07-28T15:42:49.246Z,2.37
2017-07-28T15:45:17.147Z,1.87
2017-07-28T15:47:44.574Z,2.07
2017-07-28T15:50:12.871Z,1.60
2017-07-28T15:52:42.461Z,2.07
2017-07-28T15:55:11.610Z,2.00
2017-07-28T15:57:38.252Z,1.50
2017-07-28T16:00:06.561Z,2.83
2017-07-28T16:02:35.719Z,1.73
2017-07-28T16:05:04.850Z,2.27
2017-07-28T16:07:32.302Z,2.37
2017-07-28T16:10:01.343Z,1.60
2017-07-28T16:12:30.161Z,2.23
2017-07-28T16:14:58.231Z,2.40
2017-07-28T16:17:27.714Z,2.40
2017-07-28T16:19:55.577Z,2.23
2017-07-28T16:22:24.763Z,2.30
2017-07-28T16:24:52.935Z,3.67
2017-07-28T16:27:20.332Z,1.90
2017-07-28T16:29:46.998Z,2.30
2017-07-28T16:32:13.650Z,1.77
2017-07-28T16:34:41.644Z,2.00
2017-07-28T16:37:08.267Z,2.17
2017-07-28T16:39:34.902Z,2.33
2017-07-28T16:42:01.534Z,1.90
2017-07-28T16:44:28.212Z,2.00
2017-07-28T16:46:54.836Z,2.07
2017-07-28T16:49:21.472Z,2.30
2017-07-28T16:51:48.088Z,2.33
2017-07-28T16:54:14.717Z,2.00
2017-07-28T16:56:41.652Z,2.10
2017-07-28T16:59:08.259Z,1.90
2017-07-28T17:01:34.907Z,2.60
2017-07-28T17:04:01.619Z,1.93
2017-07-28T17:06:28.265Z,2.13
2017-07-28T17:08:54.919Z,2.13
2017-07-28T17:11:21.798Z,1.73
2017-07-28T17:13:48.735Z,2.80
2017-07-28T17:16:15.355Z,2.20
2017-07-28T17:18:41.987Z,2.77
2017-07-28T17:21:08.629Z,2.30
2017-07-28T17:23:35.288Z,2.17
2017-07-28T17:26:01.903Z,1.70
2017-07-28T17:28:28.536Z,1.60
2017-07-28T17:30:55.195Z,1.67
2017-07-28T17:33:21.815Z,2.00
2017-07-28T17:35:48.448Z,2.43
2017-07-28T17:38:15.118Z,2.30
2017-07-28T17:40:43.798Z,1.87
2017-07-28T17:43:13.075Z,1.77
2017-07-28T17:45:43.463Z,2.00
2017-07-28T17:48:10.934Z,2.20
2017-07-28T17:50:38.817Z,2.13
2017-07-28T17:53:07.009Z,2.03
2017-07-28T17:55:35.669Z,2.07
2017-07-28T17:58:04.542Z,1.73
2017-07-28T18:00:32.940Z,1.80
2017-07-28T18:03:01.111Z,1.90
2017-07-28T18:05:30.891Z,2.40
2017-07-28T18:07:58.164Z,1.60
2017-07-28T18:10:27.728Z,1.67
2017-07-28T18:12:59.738Z,1.90
2017-07-28T18:15:28.622Z,1.67
2017-07-28T18:17:57.522Z,2.07
2017-07-28T18:20:26.845Z,2.43
2017-07-28T18:22:56.173Z,2.37
2017-07-28T18:25:26.598Z,1.60
2017-07-28T18:27:56.508Z,2.33
2017-07-28T18:30:24.755Z,2.20
2017-07-28T18:32:54.018Z,1.50
2017-07-28T18:35:22.755Z,1.87
2017-07-28T18:37:51.596Z,2.30
2017-07-28T18:40:21.037Z,2.13
2017-07-28T18:42:48.782Z,1.70
2017-07-28T18:45:18.241Z,1.63
2017-07-28T18:47:46.348Z,1.70
2017-07-28T18:50:15.978Z,4.17
2017-07-28T18:52:45.195Z,2.00
2017-07-28T18:55:13.844Z,2.20
2017-07-28T18:57:44.208Z,1.80
2017-07-28T19:00:12.398Z,2.30
2017-07-28T19:02:41.207Z,3.60
2017-07-28T19:05:09.609Z,3.10
2017-07-28T19:07:38.360Z,3.40
2017-07-28T19:10:08.884Z,2.27
2017-07-28T19:12:39.003Z,2.00
2017-07-28T19:15:08.579Z,2.80
2017-07-28T19:17:37.473Z,3.80
2017-07-28T19:20:06.285Z,3.00
2017-07-28T19:22:36.808Z,2.97
2017-07-28T19:25:05.186Z,3.20
2017-07-28T19:27:33.287Z,2.70
2017-07-28T19:30:02.761Z,3.03
2017-07-28T19:32:32.224Z,2.03
2017-07-28T19:35:02.376Z,2.90
2017-07-28T19:37:31.381Z,2.70
2017-07-28T19:39:58.826Z,4.70
2017-07-28T19:42:27.515Z,2.70
2017-07-28T19:44:57.009Z,2.40
2017-07-28T19:47:25.375Z,2.90
2017-07-28T19:49:52.533Z,4.00
2017-07-28T19:52:21.425Z,3.30
2017-07-28T19:54:49.498Z,3.27
2017-07-28T19:57:17.189Z,3.17
2017-07-28T19:59:46.558Z,4.67
2017-07-28T20:02:15.431Z,4.10
2017-07-28T20:04:43.823Z,3.40
2017-07-28T20:07:13.826Z,3.67
2017-07-28T20:09:40.968Z,4.50
2017-07-28T20:12:07.643Z,4.30
2017-07-28T20:14:34.296Z,3.50
2017-07-28T20:17:00.931Z,4.17
2017-07-28T20:19:29.988Z,4.87
2017-07-28T20:21:57.716Z,5.00
2017-07-28T20:24:26.115Z,4.60
2017-07-28T20:26:52.772Z,5.57
2017-07-28T20:29:19.399Z,5.13
2017-07-28T20:31:46.038Z,4.20
2017-07-28T20:34:12.648Z,5.17
2017-07-28T20:36:39.280Z,5.33
2017-07-28T20:39:05.908Z,6.10
2017-07-28T20:41:35.087Z,4.90
2017-07-28T20:44:01.735Z,4.83
2017-07-28T20:46:28.390Z,6.30
2017-07-28T20:48:55.048Z,5.83
2017-07-28T20:51:21.692Z,5.80
2017-07-28T20:53:48.339Z,5.87
2017-07-28T20:56:14.998Z,7.60
2017-07-28T20:58:41.631Z,7.03
2017-07-28T21:01:08.282Z,5.90
2017-07-28T21:03:34.929Z,6.80
2017-07-28T21:06:01.556Z,5.70
2017-07-28T21:08:28.179Z,6.00
2017-07-28T21:10:54.828Z,7.57
2017-07-28T21:13:21.603Z,7.27
2017-07-28T21:15:48.261Z,7.27
2017-07-28T21:18:14.917Z,6.80
2017-07-28T21:20:41.572Z,6.70
2017-07-28T21:23:08.189Z,7.90
2017-07-28T21:25:35.538Z,5.47
2017-07-28T21:28:02.179Z,7.17
2017-07-28T21:30:28.828Z,6.67
2017-07-28T21:32:55.458Z,7.10
2017-07-28T21:35:22.072Z,8.10
2017-07-28T21:37:48.722Z,7.80
2017-07-28T21:40:15.355Z,8.17
2017-07-28T21:42:42.007Z,7.33
2017-07-28T21:45:08.648Z,7.30
2017-07-28T21:47:35.272Z,6.87
2017-07-28T21:50:01.912Z,6.77
2017-07-28T21:52:28.535Z,7.10
2017-07-28T21:54:55.182Z,6.77
2017-07-28T21:57:21.823Z,8.17
2017-07-28T21:59:48.454Z,7.50
2017-07-28T22:02:15.098Z,6.93
2017-07-28T22:04:41.728Z,6.90
2017-07-28T22:07:08.335Z,8.73
2017-07-28T22:09:35.508Z,6.73
2017-07-28T22:12:02.142Z,7.20
2017-07-28T22:14:28.807Z,6.33
2017-07-28T22:16:55.442Z,7.00
2017-07-28T22:19:22.110Z,7.60
2017-07-28T22:21:48.746Z,7.97
2017-07-28T22:24:15.388Z,7.80
2017-07-28T22:26:42.048Z,7.40
2017-07-28T22:29:08.676Z,6.97
2017-07-28T22:31:35.312Z,8.37
2017-07-28T22:34:01.952Z,7.83
2017-07-28T22:36:28.596Z,7.10
2017-07-28T22:38:55.227Z,6.43
2017-07-28T22:41:21.865Z,7.77
2017-07-28T22:43:48.502Z,7.20
2017-07-28T22:46:15.144Z,6.60
2017-07-28T22:48:41.790Z,7.70
2017-07-28T22:51:08.416Z,6.20
2017-07-28T22:53:35.053Z,7.10
2017-07-28T22:56:01.676Z,6.47
2017-07-28T22:58:28.333Z,7.53
2017-07-28T23:00:54.979Z,6.33
2017-07-28T23:03:21.596Z,7.00
2017-07-28T23:05:48.220Z,7.80
2017-07-28T23:08:14.858Z,7.77
2017-07-28T23:10:41.507Z,6.83
2017-07-28T23:13:08.169Z,7.77
2017-07-28T23:15:34.791Z,7.70
2017-07-28T23:18:01.427Z,7.70
2017-07-28T23:20:28.069Z,7.77
2017-07-28T23:22:54.756Z,7.50
2017-07-28T23:25:21.370Z,6.23
2017-07-28T23:27:47.995Z,7.30
2017-07-28T23:30:14.611Z,7.50
2017-07-28T23:32:41.744Z,8.33
2017-07-28T23:35:08.406Z,8.10
2017-07-28T23:37:35.040Z,7.20
2017-07-28T23:40:01.682Z,8.30
2017-07-28T23:42:28.361Z,7.73
2017-07-28T23:44:54.984Z,8.80
2017-07-28T23:47:21.614Z,8.40
2017-07-28T23:49:48.254Z,7.50
2017-07-28T23:52:14.909Z,7.10
2017-07-28T23:54:41.538Z,7.40
2017-07-28T23:57:08.189Z,9.20
2017-07-28T23:59:34.819Z,8.20
